sensor_id;sensor_type;location;lat;lon;timestamp;P1;durP1;ratioP1;P2;durP2;ratioP2
23252;SDS011;11795;47.054;15.408;2022-12-18T00:00:56;34.4;;;21.3;;
23252;SDS011;11795;47.054;15.408;2022-12-18T00:02:56;34.4;;;21.3;;
23252;SDS011;11795;47.054;15.408;2022-12-18T00:04:56;34.4;;;21.3;;
23252;SDS011;11795;47.054;15.408;2022-12-18T00:06:56;37.5;;;24.0;;
23252;SDS011;11795;47.054;15.408;2022-12-18T00:08:56;37.5;;;24.0;;
23252;SDS011;11795;47.054;15.408;2022-12-18T00:10:56;35.1;;;21.9;;
23252;SDS011;11795;47.054;15.408;2022-12-18T00:12:56;35.1;;;21.9;;
23252;SDS011;11795;47.054;15.408;2022-12-18T00:14:56;35.1;;;21.9;;
23252;SDS011;11795;47.054;15.408;2022-12-18T00:16:58;35.8;;;21.8;;
23252;SDS011;11795;47.054;15.408;2022-12-18T00:18:56;35.8;;;21.8;;
23252;SDS011;11795;47.054;15.408;2022-12-18T00:20:58;38.2;;;22.3;;
23252;SDS011;11795;47.054;15.408;2022-12-18T00:22:56;38.2;;;22.3;;
23252;SDS011;11795;47.054;15.408;2022-12-18T00:24:56;38.2;;;22.3;;
23252;SDS011;11795;47.054;15.408;2022-12-18T00:26:56;36.5;;;22.6;;
23252;SDS011;11795;47.054;15.408;2022-12-18T00:28:57;36.5;;;22.6;;
23252;SDS011;11795;47.054;15.408;2022-12-18T00:30:59;35.6;;;21.4;;
23252;SDS011;11795;47.054;15.408;2022-12-18T00:32:57;35.6;;;21.4;;
23252;SDS011;11795;47.054;15.408;2022-12-18T00:34:56;35.6;;;21.4;;
23252;SDS011;11795;47.054;15.408;2022-12-18T00:36:56;34.6;;;21.7;;
23252;SDS011;11795;47.054;15.408;2022-12-18T00:38:57;34.6;;;21.7;;
23252;SDS011;11795;47.054;15.408;2022-12-18T00:40:56;33.6;;;21.4;;
23252;SDS011;11795;47.054;15.408;2022-12-18T00:42:56;33.6;;;21.4;;
23252;SDS011;11795;47.054;15.408;2022-12-18T00:44:56;33.6;;;21.4;;
23252;SDS011;11795;47.054;15.408;2022-12-18T00:46:56;34.7;;;20.6;;
23252;SDS011;11795;47.054;15.408;2022-12-18T00:48:56;34.7;;;20.6;;
23252;SDS011;11795;47.054;15.408;2022-12-18T00:50:56;34.1;;;21.5;;
23252;SDS011;11795;47.054;15.408;2022-12-18T00:52:56;34.1;;;21.5;;
23252;SDS011;11795;47.054;15.408;2022-12-18T00:54:56;34.1;;;21.5;;
23252;SDS011;11795;47.054;15.408;2022-12-18T00:56:56;32.3;;;19.5;;
23252;SDS011;11795;47.054;15.408;2022-12-18T00:58:56;32.3;;;19.5;;
23252;SDS011;11795;47.054;15.408;2022-12-18T01:00:56;31.2;;;19.3;;
23252;SDS011;11795;47.054;15.408;2022-12-18T01:02:56;31.2;;;19.3;;
23252;SDS011;11795;47.054;15.408;2022-12-18T01:04:56;31.2;;;19.3;;
23252;SDS011;11795;47.054;15.408;2022-12-18T01:06:56;29.5;;;18.4;;
23252;SDS011;11795;47.054;15.408;2022-12-18T01:08:56;29.5;;;18.4;;
23252;SDS011;11795;47.054;15.408;2022-12-18T01:10:56;30.1;;;18.4;;
23252;SDS011;11795;47.054;15.408;2022-12-18T01:12:56;30.1;;;18.4;;
23252;SDS011;11795;47.054;15.408;2022-12-18T01:14:56;30.1;;;18.4;;
23252;SDS011;11795;47.054;15.408;2022-12-18T01:16:56;27.5;;;18.3;;
23252;SDS011;11795;47.054;15.408;2022-12-18T01:18:57;27.5;;;18.3;;
23252;SDS011;11795;47.054;15.408;2022-12-18T01:20:56;26.1;;;17.3;;
23252;SDS011;11795;47.054;15.408;2022-12-18T01:22:56;26.1;;;17.3;;
23252;SDS011;11795;47.054;15.408;2022-12-18T01:24:56;26.1;;;17.3;;
23252;SDS011;11795;47.054;15.408;2022-12-18T01:26:57;29.5;;;17.8;;
23252;SDS011;11795;47.054;15.408;2022-12-18T01:28:56;29.5;;;17.8;;
23252;SDS011;11795;47.054;15.408;2022-12-18T01:30:56;26.9;;;16.8;;
23252;SDS011;11795;47.054;15.408;2022-12-18T01:32:56;26.9;;;16.8;;
23252;SDS011;11795;47.054;15.408;2022-12-18T01:34:56;26.9;;;16.8;;
23252;SDS011;11795;47.054;15.408;2022-12-18T01:36:56;27.9;;;17.7;;
23252;SDS011;11795;47.054;15.408;2022-12-18T01:38:56;27.9;;;17.7;;
23252;SDS011;11795;47.054;15.408;2022-12-18T01:40:56;29.8;;;18.0;;
23252;SDS011;11795;47.054;15.408;2022-12-18T01:42:56;29.8;;;18.0;;
23252;SDS011;11795;47.054;15.408;2022-12-18T01:44:58;29.8;;;18.0;;
23252;SDS011;11795;47.054;15.408;2022-12-18T01:46:56;29.0;;;17.6;;
23252;SDS011;11795;47.054;15.408;2022-12-18T01:48:57;29.0;;;17.6;;
23252;SDS011;11795;47.054;15.408;2022-12-18T01:50:56;38.4;;;19.7;;
23252;SDS011;11795;47.054;15.408;2022-12-18T01:52:58;38.4;;;19.7;;
23252;SDS011;11795;47.054;15.408;2022-12-18T01:54:56;38.4;;;19.7;;
23252;SDS011;11795;47.054;15.408;2022-12-18T01:56:56;38.0;;;19.4;;
23252;SDS011;11795;47.054;15.408;2022-12-18T01:58:58;38.0;;;19.4;;
23252;SDS011;11795;47.054;15.408;2022-12-18T02:00:56;30.9;;;19.4;;
23252;SDS011;11795;47.054;15.408;2022-12-18T02:02:56;30.9;;;19.4;;
23252;SDS011;11795;47.054;15.408;2022-12-18T02:04:57;30.9;;;19.4;;
23252;SDS011;11795;47.054;15.408;2022-12-18T02:06:58;31.6;;;18.1;;
23252;SDS011;11795;47.054;15.408;2022-12-18T02:08:59;31.6;;;18.1;;
23252;SDS011;11795;47.054;15.408;2022-12-18T02:10:58;28.8;;;17.5;;
23252;SDS011;11795;47.054;15.408;2022-12-18T02:12:57;28.8;;;17.5;;
23252;SDS011;11795;47.054;15.408;2022-12-18T02:14:58;28.8;;;17.5;;
23252;SDS011;11795;47.054;15.408;2022-12-18T02:16:57;32.7;;;19.3;;
23252;SDS011;11795;47.054;15.408;2022-12-18T02:18:57;32.7;;;19.3;;
23252;SDS011;11795;47.054;15.408;2022-12-18T02:20:58;27.1;;;16.9;;
23252;SDS011;11795;47.054;15.408;2022-12-18T02:23:04;27.1;;;16.9;;
23252;SDS011;11795;47.054;15.408;2022-12-18T02:24:59;27.1;;;16.9;;
23252;SDS011;11795;47.054;15.408;2022-12-18T02:26:56;30.3;;;18.5;;
23252;SDS011;11795;47.054;15.408;2022-12-18T02:28:58;30.3;;;18.5;;
23252;SDS011;11795;47.054;15.408;2022-12-18T02:30:56;27.2;;;16.9;;
23252;SDS011;11795;47.054;15.408;2022-12-18T02:32:56;27.2;;;16.9;;
23252;SDS011;11795;47.054;15.408;2022-12-18T02:34:56;27.2;;;16.9;;
23252;SDS011;11795;47.054;15.408;2022-12-18T02:36:57;25.5;;;16.5;;
23252;SDS011;11795;47.054;15.408;2022-12-18T02:38:56;25.5;;;16.5;;
23252;SDS011;11795;47.054;15.408;2022-12-18T02:40:56;28.9;;;16.4;;
23252;SDS011;11795;47.054;15.408;2022-12-18T02:43:01;28.9;;;16.4;;
23252;SDS011;11795;47.054;15.408;2022-12-18T02:44:56;28.9;;;16.4;;
23252;SDS011;11795;47.054;15.408;2022-12-18T02:46:56;23.5;;;15.3;;
23252;SDS011;11795;47.054;15.408;2022-12-18T02:48:59;23.5;;;15.3;;
23252;SDS011;11795;47.054;15.408;2022-12-18T02:50:59;24.2;;;14.7;;
23252;SDS011;11795;47.054;15.408;2022-12-18T02:53:00;24.2;;;14.7;;
23252;SDS011;11795;47.054;15.408;2022-12-18T02:54:57;24.2;;;14.7;;
23252;SDS011;11795;47.054;15.408;2022-12-18T02:56:57;25.3;;;16.3;;
23252;SDS011;11795;47.054;15.408;2022-12-18T02:58:58;25.3;;;16.3;;
23252;SDS011;11795;47.054;15.408;2022-12-18T03:00:58;24.6;;;15.4;;
23252;SDS011;11795;47.054;15.408;2022-12-18T03:02:57;24.6;;;15.4;;
23252;SDS011;11795;47.054;15.408;2022-12-18T03:04:57;24.6;;;15.4;;
23252;SDS011;11795;47.054;15.408;2022-12-18T03:06:57;25.1;;;15.5;;
23252;SDS011;11795;47.054;15.408;2022-12-18T03:08:57;25.1;;;15.5;;
23252;SDS011;11795;47.054;15.408;2022-12-18T03:10:58;24.1;;;15.5;;
23252;SDS011;11795;47.054;15.408;2022-12-18T03:12:58;24.1;;;15.5;;
23252;SDS011;11795;47.054;15.408;2022-12-18T03:14:57;24.1;;;15.5;;
23252;SDS011;11795;47.054;15.408;2022-12-18T03:16:57;23.6;;;15.1;;
23252;SDS011;11795;47.054;15.408;2022-12-18T03:18:58;23.6;;;15.1;;
23252;SDS011;11795;47.054;15.408;2022-12-18T03:20:57;24.8;;;15.8;;
23252;SDS011;11795;47.054;15.408;2022-12-18T03:22:57;24.8;;;15.8;;
23252;SDS011;11795;47.054;15.408;2022-12-18T03:24:56;24.8;;;15.8;;
23252;SDS011;11795;47.054;15.408;2022-12-18T03:26:57;23.7;;;15.3;;
23252;SDS011;11795;47.054;15.408;2022-12-18T03:28:57;23.7;;;15.3;;
23252;SDS011;11795;47.054;15.408;2022-12-18T03:30:56;24.2;;;15.5;;
23252;SDS011;11795;47.054;15.408;2022-12-18T03:32:57;24.2;;;15.5;;
23252;SDS011;11795;47.054;15.408;2022-12-18T03:34:57;24.2;;;15.5;;
23252;SDS011;11795;47.054;15.408;2022-12-18T03:36:57;21.9;;;13.8;;
23252;SDS011;11795;47.054;15.408;2022-12-18T03:38:56;21.9;;;13.8;;
23252;SDS011;11795;47.054;15.408;2022-12-18T03:40:58;21.7;;;14.6;;
23252;SDS011;11795;47.054;15.408;2022-12-18T03:42:57;21.7;;;14.6;;
23252;SDS011;11795;47.054;15.408;2022-12-18T03:44:57;21.7;;;14.6;;
23252;SDS011;11795;47.054;15.408;2022-12-18T03:46:58;22.6;;;14.8;;
23252;SDS011;11795;47.054;15.408;2022-12-18T03:48:58;22.6;;;14.8;;
23252;SDS011;11795;47.054;15.408;2022-12-18T03:50:57;21.5;;;13.9;;
23252;SDS011;11795;47.054;15.408;2022-12-18T03:52:57;21.5;;;13.9;;
23252;SDS011;11795;47.054;15.408;2022-12-18T03:54:57;21.5;;;13.9;;
23252;SDS011;11795;47.054;15.408;2022-12-18T03:56:57;20.4;;;13.9;;
23252;SDS011;11795;47.054;15.408;2022-12-18T03:58:56;20.4;;;13.9;;
23252;SDS011;11795;47.054;15.408;2022-12-18T04:00:58;20.2;;;14.2;;
23252;SDS011;11795;47.054;15.408;2022-12-18T04:02:56;20.2;;;14.2;;
23252;SDS011;11795;47.054;15.408;2022-12-18T04:04:57;20.2;;;14.2;;
23252;SDS011;11795;47.054;15.408;2022-12-18T04:06:56;19.7;;;13.7;;
23252;SDS011;11795;47.054;15.408;2022-12-18T04:08:57;19.7;;;13.7;;
23252;SDS011;11795;47.054;15.408;2022-12-18T04:10:56;20.2;;;13.8;;
23252;SDS011;11795;47.054;15.408;2022-12-18T04:12:57;20.2;;;13.8;;
23252;SDS011;11795;47.054;15.408;2022-12-18T04:14:56;20.2;;;13.8;;
23252;SDS011;11795;47.054;15.408;2022-12-18T04:16:56;19.5;;;13.3;;
23252;SDS011;11795;47.054;15.408;2022-12-18T04:18:56;19.5;;;13.3;;
23252;SDS011;11795;47.054;15.408;2022-12-18T04:20:56;19.3;;;13.2;;
23252;SDS011;11795;47.054;15.408;2022-12-18T04:22:56;19.3;;;13.2;;
23252;SDS011;11795;47.054;15.408;2022-12-18T04:24:56;19.3;;;13.2;;
23252;SDS011;11795;47.054;15.408;2022-12-18T04:26:56;19.8;;;13.4;;
23252;SDS011;11795;47.054;15.408;2022-12-18T04:28:56;19.8;;;13.4;;
23252;SDS011;11795;47.054;15.408;2022-12-18T04:30:56;21.2;;;14.2;;
23252;SDS011;11795;47.054;15.408;2022-12-18T04:32:56;21.2;;;14.2;;
23252;SDS011;11795;47.054;15.408;2022-12-18T04:34:56;21.2;;;14.2;;
23252;SDS011;11795;47.054;15.408;2022-12-18T04:36:56;20.9;;;13.4;;
23252;SDS011;11795;47.054;15.408;2022-12-18T04:38:56;20.9;;;13.4;;
23252;SDS011;11795;47.054;15.408;2022-12-18T04:40:56;21.8;;;14.5;;
23252;SDS011;11795;47.054;15.408;2022-12-18T04:42:56;21.8;;;14.5;;
23252;SDS011;11795;47.054;15.408;2022-12-18T04:44:56;21.8;;;14.5;;
23252;SDS011;11795;47.054;15.408;2022-12-18T04:46:56;22.7;;;14.8;;
23252;SDS011;11795;47.054;15.408;2022-12-18T04:48:56;22.7;;;14.8;;
23252;SDS011;11795;47.054;15.408;2022-12-18T04:50:56;22.6;;;14.2;;
23252;SDS011;11795;47.054;15.408;2022-12-18T04:52:56;22.6;;;14.2;;
23252;SDS011;11795;47.054;15.408;2022-12-18T04:54:56;22.6;;;14.2;;
23252;SDS011;11795;47.054;15.408;2022-12-18T04:56:56;19.1;;;13.2;;
23252;SDS011;11795;47.054;15.408;2022-12-18T04:58:56;19.1;;;13.2;;
23252;SDS011;11795;47.054;15.408;2022-12-18T05:00:56;17.8;;;12.6;;
23252;SDS011;11795;47.054;15.408;2022-12-18T05:02:56;17.8;;;12.6;;
23252;SDS011;11795;47.054;15.408;2022-12-18T05:04:56;17.8;;;12.6;;
23252;SDS011;11795;47.054;15.408;2022-12-18T05:06:56;19.5;;;13.3;;
23252;SDS011;11795;47.054;15.408;2022-12-18T05:08:56;19.5;;;13.3;;
23252;SDS011;11795;47.054;15.408;2022-12-18T05:10:58;21.7;;;14.0;;
23252;SDS011;11795;47.054;15.408;2022-12-18T05:13:00;21.7;;;14.0;;
23252;SDS011;11795;47.054;15.408;2022-12-18T05:14:56;21.7;;;14.0;;
23252;SDS011;11795;47.054;15.408;2022-12-18T05:16:56;20.3;;;14.5;;
23252;SDS011;11795;47.054;15.408;2022-12-18T05:18:56;20.3;;;14.5;;
23252;SDS011;11795;47.054;15.408;2022-12-18T05:20:57;19.7;;;12.8;;
23252;SDS011;11795;47.054;15.408;2022-12-18T05:22:56;19.7;;;12.8;;
23252;SDS011;11795;47.054;15.408;2022-12-18T05:24:57;19.7;;;12.8;;
23252;SDS011;11795;47.054;15.408;2022-12-18T05:26:56;18.5;;;12.7;;
23252;SDS011;11795;47.054;15.408;2022-12-18T05:28:56;18.5;;;12.7;;
23252;SDS011;11795;47.054;15.408;2022-12-18T05:30:57;18.2;;;12.7;;
23252;SDS011;11795;47.054;15.408;2022-12-18T05:32:56;18.2;;;12.7;;
23252;SDS011;11795;47.054;15.408;2022-12-18T05:34:57;18.2;;;12.7;;
23252;SDS011;11795;47.054;15.408;2022-12-18T05:36:56;19.5;;;13.9;;
23252;SDS011;11795;47.054;15.408;2022-12-18T05:38:56;19.5;;;13.9;;
23252;SDS011;11795;47.054;15.408;2022-12-18T05:40:57;21.3;;;14.0;;
23252;SDS011;11795;47.054;15.408;2022-12-18T05:42:56;21.3;;;14.0;;
23252;SDS011;11795;47.054;15.408;2022-12-18T05:44:57;21.3;;;14.0;;
23252;SDS011;11795;47.054;15.408;2022-12-18T05:46:56;20.9;;;13.8;;
23252;SDS011;11795;47.054;15.408;2022-12-18T05:48:58;20.9;;;13.8;;
23252;SDS011;11795;47.054;15.408;2022-12-18T05:51:02;19.7;;;13.7;;
23252;SDS011;11795;47.054;15.408;2022-12-18T05:52:56;19.7;;;13.7;;
23252;SDS011;11795;47.054;15.408;2022-12-18T05:54:57;19.7;;;13.7;;
23252;SDS011;11795;47.054;15.408;2022-12-18T05:56:56;21.7;;;14.1;;
23252;SDS011;11795;47.054;15.408;2022-12-18T05:58:56;21.7;;;14.1;;
23252;SDS011;11795;47.054;15.408;2022-12-18T06:00:57;20.3;;;13.8;;
23252;SDS011;11795;47.054;15.408;2022-12-18T06:02:56;20.3;;;13.8;;
23252;SDS011;11795;47.054;15.408;2022-12-18T06:04:56;20.3;;;13.8;;
23252;SDS011;11795;47.054;15.408;2022-12-18T06:06:57;21.9;;;14.8;;
23252;SDS011;11795;47.054;15.408;2022-12-18T06:08:57;21.9;;;14.8;;
23252;SDS011;11795;47.054;15.408;2022-12-18T06:10:56;20.2;;;14.0;;
23252;SDS011;11795;47.054;15.408;2022-12-18T06:12:56;20.2;;;14.0;;
23252;SDS011;11795;47.054;15.408;2022-12-18T06:14:57;20.2;;;14.0;;
23252;SDS011;11795;47.054;15.408;2022-12-18T06:16:57;19.1;;;12.8;;
23252;SDS011;11795;47.054;15.408;2022-12-18T06:18:57;19.1;;;12.8;;
23252;SDS011;11795;47.054;15.408;2022-12-18T06:20:57;17.9;;;12.5;;
23252;SDS011;11795;47.054;15.408;2022-12-18T06:22:57;17.9;;;12.5;;
23252;SDS011;11795;47.054;15.408;2022-12-18T06:24:57;17.9;;;12.5;;
23252;SDS011;11795;47.054;15.408;2022-12-18T06:26:57;20.6;;;13.6;;
23252;SDS011;11795;47.054;15.408;2022-12-18T06:28:57;20.6;;;13.6;;
23252;SDS011;11795;47.054;15.408;2022-12-18T06:30:57;24.9;;;15.7;;
23252;SDS011;11795;47.054;15.408;2022-12-18T06:32:57;24.9;;;15.7;;
23252;SDS011;11795;47.054;15.408;2022-12-18T06:34:57;24.9;;;15.7;;
23252;SDS011;11795;47.054;15.408;2022-12-18T06:36:57;21.7;;;15.2;;
23252;SDS011;11795;47.054;15.408;2022-12-18T06:38:57;21.7;;;15.2;;
23252;SDS011;11795;47.054;15.408;2022-12-18T06:40:57;21.9;;;14.6;;
23252;SDS011;11795;47.054;15.408;2022-12-18T06:42:57;21.9;;;14.6;;
23252;SDS011;11795;47.054;15.408;2022-12-18T06:44:57;21.9;;;14.6;;
23252;SDS011;11795;47.054;15.408;2022-12-18T06:46:57;21.3;;;14.7;;
23252;SDS011;11795;47.054;15.408;2022-12-18T06:48:57;21.3;;;14.7;;
23252;SDS011;11795;47.054;15.408;2022-12-18T06:50:57;22.9;;;14.3;;
23252;SDS011;11795;47.054;15.408;2022-12-18T06:52:57;22.9;;;14.3;;
23252;SDS011;11795;47.054;15.408;2022-12-18T06:54:57;22.9;;;14.3;;
23252;SDS011;11795;47.054;15.408;2022-12-18T06:56:57;24.1;;;16.3;;
23252;SDS011;11795;47.054;15.408;2022-12-18T06:58:57;24.1;;;16.3;;
23252;SDS011;11795;47.054;15.408;2022-12-18T07:00:59;23.4;;;15.0;;
23252;SDS011;11795;47.054;15.408;2022-12-18T07:02:57;23.4;;;15.0;;
23252;SDS011;11795;47.054;15.408;2022-12-18T07:04:57;23.4;;;15.0;;
23252;SDS011;11795;47.054;15.408;2022-12-18T07:06:57;19.6;;;13.8;;
23252;SDS011;11795;47.054;15.408;2022-12-18T07:08:57;19.6;;;13.8;;
23252;SDS011;11795;47.054;15.408;2022-12-18T07:10:57;17.7;;;12.7;;
23252;SDS011;11795;47.054;15.408;2022-12-18T07:12:57;17.7;;;12.7;;
23252;SDS011;11795;47.054;15.408;2022-12-18T07:14:57;17.7;;;12.7;;
23252;SDS011;11795;47.054;15.408;2022-12-18T07:16:57;16.8;;;12.5;;
23252;SDS011;11795;47.054;15.408;2022-12-18T07:18:57;16.8;;;12.5;;
23252;SDS011;11795;47.054;15.408;2022-12-18T07:20:57;17.3;;;11.5;;
23252;SDS011;11795;47.054;15.408;2022-12-18T07:22:57;17.3;;;11.5;;
23252;SDS011;11795;47.054;15.408;2022-12-18T07:24:57;17.3;;;11.5;;
23252;SDS011;11795;47.054;15.408;2022-12-18T07:26:57;14.4;;;10.8;;
23252;SDS011;11795;47.054;15.408;2022-12-18T07:28:57;14.4;;;10.8;;
23252;SDS011;11795;47.054;15.408;2022-12-18T07:30:57;16.4;;;11.2;;
23252;SDS011;11795;47.054;15.408;2022-12-18T07:32:57;16.4;;;11.2;;
23252;SDS011;11795;47.054;15.408;2022-12-18T07:34:57;16.4;;;11.2;;
23252;SDS011;11795;47.054;15.408;2022-12-18T07:36:57;15.6;;;10.7;;
23252;SDS011;11795;47.054;15.408;2022-12-18T07:38:57;15.6;;;10.7;;
23252;SDS011;11795;47.054;15.408;2022-12-18T07:40:59;16.1;;;10.3;;
23252;SDS011;11795;47.054;15.408;2022-12-18T07:42:57;16.1;;;10.3;;
23252;SDS011;11795;47.054;15.408;2022-12-18T07:44:57;16.1;;;10.3;;
23252;SDS011;11795;47.054;15.408;2022-12-18T07:46:57;14.4;;;10.5;;
23252;SDS011;11795;47.054;15.408;2022-12-18T07:48:57;14.4;;;10.5;;
23252;SDS011;11795;47.054;15.408;2022-12-18T07:50:57;14.6;;;9.8;;
23252;SDS011;11795;47.054;15.408;2022-12-18T07:52:57;14.6;;;9.8;;
23252;SDS011;11795;47.054;15.408;2022-12-18T07:54:57;14.6;;;9.8;;
23252;SDS011;11795;47.054;15.408;2022-12-18T07:56:57;13.0;;;9.3;;
23252;SDS011;11795;47.054;15.408;2022-12-18T07:58:57;13.0;;;9.3;;
23252;SDS011;11795;47.054;15.408;2022-12-18T08:01:01;12.7;;;8.6;;
23252;SDS011;11795;47.054;15.408;2022-12-18T08:02:57;12.7;;;8.6;;
23252;SDS011;11795;47.054;15.408;2022-12-18T08:04:57;12.7;;;8.6;;
23252;SDS011;11795;47.054;15.408;2022-12-18T08:06:57;12.8;;;9.1;;
23252;SDS011;11795;47.054;15.408;2022-12-18T08:08:57;12.8;;;9.1;;
23252;SDS011;11795;47.054;15.408;2022-12-18T08:10:57;12.9;;;9.4;;
23252;SDS011;11795;47.054;15.408;2022-12-18T08:12:57;12.9;;;9.4;;
23252;SDS011;11795;47.054;15.408;2022-12-18T08:14:57;12.9;;;9.4;;
23252;SDS011;11795;47.054;15.408;2022-12-18T08:16:57;13.2;;;9.5;;
23252;SDS011;11795;47.054;15.408;2022-12-18T08:18:57;13.2;;;9.5;;
23252;SDS011;11795;47.054;15.408;2022-12-18T08:20:57;12.5;;;9.5;;
23252;SDS011;11795;47.054;15.408;2022-12-18T08:22:58;12.5;;;9.5;;
23252;SDS011;11795;47.054;15.408;2022-12-18T08:24:57;12.5;;;9.5;;
23252;SDS011;11795;47.054;15.408;2022-12-18T08:26:57;13.6;;;9.8;;
23252;SDS011;11795;47.054;15.408;2022-12-18T08:28:58;13.6;;;9.8;;
23252;SDS011;11795;47.054;15.408;2022-12-18T08:30:57;12.5;;;8.9;;
23252;SDS011;11795;47.054;15.408;2022-12-18T08:32:58;12.5;;;8.9;;
23252;SDS011;11795;47.054;15.408;2022-12-18T08:34:57;12.5;;;8.9;;
23252;SDS011;11795;47.054;15.408;2022-12-18T08:36:57;12.8;;;9.5;;
23252;SDS011;11795;47.054;15.408;2022-12-18T08:38:57;12.8;;;9.5;;
23252;SDS011;11795;47.054;15.408;2022-12-18T08:40:58;12.1;;;9.1;;
23252;SDS011;11795;47.054;15.408;2022-12-18T08:43:07;12.1;;;9.1;;
23252;SDS011;11795;47.054;15.408;2022-12-18T08:44:57;12.1;;;9.1;;
23252;SDS011;11795;47.054;15.408;2022-12-18T08:46:57;15.2;;;10.3;;
23252;SDS011;11795;47.054;15.408;2022-12-18T08:48:57;15.2;;;10.3;;
23252;SDS011;11795;47.054;15.408;2022-12-18T08:50:57;15.1;;;10.8;;
23252;SDS011;11795;47.054;15.408;2022-12-18T08:52:57;15.1;;;10.8;;
23252;SDS011;11795;47.054;15.408;2022-12-18T08:54:57;15.1;;;10.8;;
23252;SDS011;11795;47.054;15.408;2022-12-18T08:56:57;17.1;;;12.6;;
23252;SDS011;11795;47.054;15.408;2022-12-18T08:58:57;17.1;;;12.6;;
23252;SDS011;11795;47.054;15.408;2022-12-18T09:00:59;16.1;;;11.6;;
23252;SDS011;11795;47.054;15.408;2022-12-18T09:02:57;16.1;;;11.6;;
23252;SDS011;11795;47.054;15.408;2022-12-18T09:04:57;16.1;;;11.6;;
23252;SDS011;11795;47.054;15.408;2022-12-18T09:06:57;18.3;;;13.4;;
23252;SDS011;11795;47.054;15.408;2022-12-18T09:08:57;18.3;;;13.4;;
23252;SDS011;11795;47.054;15.408;2022-12-18T09:10:57;19.2;;;13.2;;
23252;SDS011;11795;47.054;15.408;2022-12-18T09:12:57;19.2;;;13.2;;
23252;SDS011;11795;47.054;15.408;2022-12-18T09:14:57;19.2;;;13.2;;
23252;SDS011;11795;47.054;15.408;2022-12-18T09:16:57;19.8;;;14.1;;
23252;SDS011;11795;47.054;15.408;2022-12-18T09:18:59;19.8;;;14.1;;
23252;SDS011;11795;47.054;15.408;2022-12-18T09:20:57;19.8;;;14.7;;
23252;SDS011;11795;47.054;15.408;2022-12-18T09:22:57;19.8;;;14.7;;
23252;SDS011;11795;47.054;15.408;2022-12-18T09:24:57;19.8;;;14.7;;
23252;SDS011;11795;47.054;15.408;2022-12-18T09:26:57;24.8;;;17.0;;
23252;SDS011;11795;47.054;15.408;2022-12-18T09:28:57;24.8;;;17.0;;
23252;SDS011;11795;47.054;15.408;2022-12-18T09:30:57;23.1;;;16.9;;
23252;SDS011;11795;47.054;15.408;2022-12-18T09:32:57;23.1;;;16.9;;
23252;SDS011;11795;47.054;15.408;2022-12-18T09:34:57;23.1;;;16.9;;
23252;SDS011;11795;47.054;15.408;2022-12-18T09:36:57;23.2;;;16.6;;
23252;SDS011;11795;47.054;15.408;2022-12-18T09:38:57;23.2;;;16.6;;
23252;SDS011;11795;47.054;15.408;2022-12-18T09:40:59;21.7;;;15.8;;
23252;SDS011;11795;47.054;15.408;2022-12-18T09:42:57;21.7;;;15.8;;
23252;SDS011;11795;47.054;15.408;2022-12-18T09:44:57;21.7;;;15.8;;
23252;SDS011;11795;47.054;15.408;2022-12-18T09:47:01;20.2;;;15.3;;
23252;SDS011;11795;47.054;15.408;2022-12-18T09:48:58;20.2;;;15.3;;
23252;SDS011;11795;47.054;15.408;2022-12-18T09:50:58;22.5;;;16.8;;
23252;SDS011;11795;47.054;15.408;2022-12-18T09:52:57;22.5;;;16.8;;
23252;SDS011;11795;47.054;15.408;2022-12-18T09:54:58;22.5;;;16.8;;
23252;SDS011;11795;47.054;15.408;2022-12-18T09:56:57;23.0;;;16.7;;
23252;SDS011;11795;47.054;15.408;2022-12-18T09:58:58;23.0;;;16.7;;
23252;SDS011;11795;47.054;15.408;2022-12-18T10:00:57;20.9;;;15.4;;
23252;SDS011;11795;47.054;15.408;2022-12-18T10:02:58;20.9;;;15.4;;
23252;SDS011;11795;47.054;15.408;2022-12-18T10:05:02;20.9;;;15.4;;
23252;SDS011;11795;47.054;15.408;2022-12-18T10:06:58;18.5;;;14.0;;
23252;SDS011;11795;47.054;15.408;2022-12-18T10:08:58;18.5;;;14.0;;
23252;SDS011;11795;47.054;15.408;2022-12-18T10:10:57;19.4;;;14.6;;
23252;SDS011;11795;47.054;15.408;2022-12-18T10:13:00;19.4;;;14.6;;
23252;SDS011;11795;47.054;15.408;2022-12-18T10:14:58;19.4;;;14.6;;
23252;SDS011;11795;47.054;15.408;2022-12-18T10:16:59;19.2;;;14.8;;
23252;SDS011;11795;47.054;15.408;2022-12-18T10:19:00;19.2;;;14.8;;
23252;SDS011;11795;47.054;15.408;2022-12-18T10:20:58;20.6;;;15.2;;
23252;SDS011;11795;47.054;15.408;2022-12-18T10:22:57;20.6;;;15.2;;
23252;SDS011;11795;47.054;15.408;2022-12-18T10:25:00;20.6;;;15.2;;
23252;SDS011;11795;47.054;15.408;2022-12-18T10:26:59;20.3;;;14.9;;
23252;SDS011;11795;47.054;15.408;2022-12-18T10:28:57;20.3;;;14.9;;
23252;SDS011;11795;47.054;15.408;2022-12-18T10:30:57;22.3;;;15.6;;
23252;SDS011;11795;47.054;15.408;2022-12-18T10:33:00;22.3;;;15.6;;
23252;SDS011;11795;47.054;15.408;2022-12-18T10:34:57;22.3;;;15.6;;
23252;SDS011;11795;47.054;15.408;2022-12-18T10:36:57;22.0;;;16.4;;
23252;SDS011;11795;47.054;15.408;2022-12-18T10:39:00;22.0;;;16.4;;
23252;SDS011;11795;47.054;15.408;2022-12-18T10:40:58;25.7;;;17.8;;
23252;SDS011;11795;47.054;15.408;2022-12-18T10:43:05;25.7;;;17.8;;
23252;SDS011;11795;47.054;15.408;2022-12-18T10:45:00;25.7;;;17.8;;
23252;SDS011;11795;47.054;15.408;2022-12-18T10:47:02;25.7;;;18.3;;
23252;SDS011;11795;47.054;15.408;2022-12-18T10:48:57;25.7;;;18.3;;
23252;SDS011;11795;47.054;15.408;2022-12-18T10:50:57;29.9;;;20.5;;
23252;SDS011;11795;47.054;15.408;2022-12-18T10:52:57;29.9;;;20.5;;
23252;SDS011;11795;47.054;15.408;2022-12-18T10:54:58;29.9;;;20.5;;
23252;SDS011;11795;47.054;15.408;2022-12-18T10:58:58;25.8;;;18.0;;
23252;SDS011;11795;47.054;15.408;2022-12-18T11:01:01;27.7;;;18.4;;
23252;SDS011;11795;47.054;15.408;2022-12-18T11:02:57;27.7;;;18.4;;
23252;SDS011;11795;47.054;15.408;2022-12-18T11:04:57;27.7;;;18.4;;
23252;SDS011;11795;47.054;15.408;2022-12-18T11:06:58;25.0;;;18.2;;
23252;SDS011;11795;47.054;15.408;2022-12-18T11:08:58;25.0;;;18.2;;
23252;SDS011;11795;47.054;15.408;2022-12-18T11:10:57;27.3;;;19.0;;
23252;SDS011;11795;47.054;15.408;2022-12-18T11:14:57;27.3;;;19.0;;
23252;SDS011;11795;47.054;15.408;2022-12-18T11:16:58;26.4;;;18.8;;
23252;SDS011;11795;47.054;15.408;2022-12-18T11:20:58;25.6;;;18.8;;
23252;SDS011;11795;47.054;15.408;2022-12-18T11:22:58;25.6;;;18.8;;
23252;SDS011;11795;47.054;15.408;2022-12-18T11:24:58;25.6;;;18.8;;
23252;SDS011;11795;47.054;15.408;2022-12-18T11:26:57;28.2;;;19.8;;
23252;SDS011;11795;47.054;15.408;2022-12-18T11:29:07;28.2;;;19.8;;
23252;SDS011;11795;47.054;15.408;2022-12-18T11:33:00;27.7;;;19.3;;
23252;SDS011;11795;47.054;15.408;2022-12-18T11:34:59;27.7;;;19.3;;
23252;SDS011;11795;47.054;15.408;2022-12-18T11:36:57;31.4;;;20.6;;
23252;SDS011;11795;47.054;15.408;2022-12-18T11:38:57;31.4;;;20.6;;
23252;SDS011;11795;47.054;15.408;2022-12-18T11:40:58;31.5;;;21.3;;
23252;SDS011;11795;47.054;15.408;2022-12-18T11:42:58;31.5;;;21.3;;
23252;SDS011;11795;47.054;15.408;2022-12-18T11:44:58;31.5;;;21.3;;
23252;SDS011;11795;47.054;15.408;2022-12-18T11:46:59;33.3;;;22.0;;
23252;SDS011;11795;47.054;15.408;2022-12-18T11:48:58;33.3;;;22.0;;
23252;SDS011;11795;47.054;15.408;2022-12-18T11:50:58;38.8;;;24.4;;
23252;SDS011;11795;47.054;15.408;2022-12-18T11:52:57;38.8;;;24.4;;
23252;SDS011;11795;47.054;15.408;2022-12-18T11:54:58;38.8;;;24.4;;
23252;SDS011;11795;47.054;15.408;2022-12-18T11:56:58;33.1;;;21.4;;
23252;SDS011;11795;47.054;15.408;2022-12-18T11:58:59;33.1;;;21.4;;
23252;SDS011;11795;47.054;15.408;2022-12-18T12:00:59;34.8;;;23.6;;